sensor_id;sensor_type;location;lat;lon;timestamp;temperature;humidity
18779;DHT22;9518;51.720;14.384;2022-10-16T00:00:43;14.00;99.90
18779;DHT22;9518;51.720;14.384;2022-10-16T00:03:11;14.10;99.90
18779;DHT22;9518;51.720;14.384;2022-10-16T00:05:41;14.10;99.90
18779;DHT22;9518;51.720;14.384;2022-10-16T00:08:08;14.10;99.90
18779;DHT22;9518;51.720;14.384;2022-10-16T00:10:36;14.20;99.90
18779;DHT22;9518;51.720;14.384;2022-10-16T00:13:03;14.10;99.90
18779;DHT22;9518;51.720;14.384;2022-10-16T00:15:33;14.10;99.90
18779;DHT22;9518;51.720;14.384;2022-10-16T00:18:01;13.90;99.90
18779;DHT22;9518;51.720;14.384;2022-10-16T00:20:28;13.90;99.90
18779;DHT22;9518;51.720;14.384;2022-10-16T00:22:58;13.90;99.90
18779;DHT22;9518;51.720;14.384;2022-10-16T00:25:24;13.90;99.90
18779;DHT22;9518;51.720;14.384;2022-10-16T00:27:51;14.00;99.90
18779;DHT22;9518;51.720;14.384;2022-10-16T00:30:19;13.90;99.90
18779;DHT22;9518;51.720;14.384;2022-10-16T00:32:46;13.90;99.90
18779;DHT22;9518;51.720;14.384;2022-10-16T00:35:13;13.80;99.90
18779;DHT22;9518;51.720;14.384;2022-10-16T00:37:40;13.70;99.90
18779;DHT22;9518;51.720;14.384;2022-10-16T00:40:09;13.60;99.90
18779;DHT22;9518;51.720;14.384;2022-10-16T00:42:36;13.50;99.90
18779;DHT22;9518;51.720;14.384;2022-10-16T00:45:04;13.30;99.90
18779;DHT22;9518;51.720;14.384;2022-10-16T00:47:34;13.30;99.90
18779;DHT22;9518;51.720;14.384;2022-10-16T00:50:08;13.30;99.90
18779;DHT22;9518;51.720;14.384;2022-10-16T00:52:35;13.40;99.90
18779;DHT22;9518;51.720;14.384;2022-10-16T00:55:05;13.50;99.90
18779;DHT22;9518;51.720;14.384;2022-10-16T00:57:34;13.60;99.90
18779;DHT22;9518;51.720;14.384;2022-10-16T01:00:02;13.70;99.90
18779;DHT22;9518;51.720;14.384;2022-10-16T01:02:30;13.70;99.90
18779;DHT22;9518;51.720;14.384;2022-10-16T01:04:57;13.70;99.90
18779;DHT22;9518;51.720;14.384;2022-10-16T01:07:34;13.60;99.90
18779;DHT22;9518;51.720;14.384;2022-10-16T01:10:13;13.60;99.90
18779;DHT22;9518;51.720;14.384;2022-10-16T01:12:48;13.50;99.90
18779;DHT22;9518;51.720;14.384;2022-10-16T01:15:26;13.40;99.90
18779;DHT22;9518;51.720;14.384;2022-10-16T01:17:58;13.20;99.90
18779;DHT22;9518;51.720;14.384;2022-10-16T01:20:31;13.20;99.90
18779;DHT22;9518;51.720;14.384;2022-10-16T01:23:06;13.10;99.90
18779;DHT22;9518;51.720;14.384;2022-10-16T01:25:58;13.20;99.90
18779;DHT22;9518;51.720;14.384;2022-10-16T01:28:31;13.30;99.90
18779;DHT22;9518;51.720;14.384;2022-10-16T01:30:59;13.20;99.90
18779;DHT22;9518;51.720;14.384;2022-10-16T01:33:34;13.20;99.90
18779;DHT22;9518;51.720;14.384;2022-10-16T01:36:06;13.20;99.90
18779;DHT22;9518;51.720;14.384;2022-10-16T01:38:39;13.10;99.90
18779;DHT22;9518;51.720;14.384;2022-10-16T01:41:09;13.00;99.90
18779;DHT22;9518;51.720;14.384;2022-10-16T01:43:40;12.90;99.90
18779;DHT22;9518;51.720;14.384;2022-10-16T01:46:10;12.90;99.90
18779;DHT22;9518;51.720;14.384;2022-10-16T01:48:39;12.90;99.90
18779;DHT22;9518;51.720;14.384;2022-10-16T01:51:10;12.90;99.90
18779;DHT22;9518;51.720;14.384;2022-10-16T01:53:39;13.00;99.90
18779;DHT22;9518;51.720;14.384;2022-10-16T01:56:09;13.10;99.90
18779;DHT22;9518;51.720;14.384;2022-10-16T01:58:40;13.10;99.90
18779;DHT22;9518;51.720;14.384;2022-10-16T02:01:10;13.20;99.90
18779;DHT22;9518;51.720;14.384;2022-10-16T02:03:40;13.10;99.90
18779;DHT22;9518;51.720;14.384;2022-10-16T02:06:09;13.00;99.90
18779;DHT22;9518;51.720;14.384;2022-10-16T02:08:36;12.90;99.90
18779;DHT22;9518;51.720;14.384;2022-10-16T02:11:04;13.00;99.90
18779;DHT22;9518;51.720;14.384;2022-10-16T02:13:34;13.00;99.90
18779;DHT22;9518;51.720;14.384;2022-10-16T02:16:06;13.10;99.90
18779;DHT22;9518;51.720;14.384;2022-10-16T02:18:33;13.20;99.90
18779;DHT22;9518;51.720;14.384;2022-10-16T02:21:04;13.40;99.90
18779;DHT22;9518;51.720;14.384;2022-10-16T02:23:40;13.50;99.90
18779;DHT22;9518;51.720;14.384;2022-10-16T02:26:16;13.50;99.90
18779;DHT22;9518;51.720;14.384;2022-10-16T02:28:48;13.60;99.90
18779;DHT22;9518;51.720;14.384;2022-10-16T02:31:27;13.60;99.90
18779;DHT22;9518;51.720;14.384;2022-10-16T02:33:57;13.70;99.90
18779;DHT22;9518;51.720;14.384;2022-10-16T02:36:25;13.80;99.90
18779;DHT22;9518;51.720;14.384;2022-10-16T02:38:55;13.90;99.90
18779;DHT22;9518;51.720;14.384;2022-10-16T02:41:23;14.00;99.90
18779;DHT22;9518;51.720;14.384;2022-10-16T02:43:50;14.00;99.90
18779;DHT22;9518;51.720;14.384;2022-10-16T02:46:18;14.00;99.90
18779;DHT22;9518;51.720;14.384;2022-10-16T02:48:47;14.00;99.90
18779;DHT22;9518;51.720;14.384;2022-10-16T02:51:14;14.10;99.90
18779;DHT22;9518;51.720;14.384;2022-10-16T02:53:41;14.20;99.90
18779;DHT22;9518;51.720;14.384;2022-10-16T02:56:08;14.30;99.90
18779;DHT22;9518;51.720;14.384;2022-10-16T02:58:35;14.40;99.90
18779;DHT22;9518;51.720;14.384;2022-10-16T03:01:02;14.40;99.90
18779;DHT22;9518;51.720;14.384;2022-10-16T03:03:28;14.40;99.90
18779;DHT22;9518;51.720;14.384;2022-10-16T03:05:57;14.30;99.90
18779;DHT22;9518;51.720;14.384;2022-10-16T03:08:26;14.30;99.90
18779;DHT22;9518;51.720;14.384;2022-10-16T03:10:53;14.20;99.90
18779;DHT22;9518;51.720;14.384;2022-10-16T03:13:20;14.30;99.90
18779;DHT22;9518;51.720;14.384;2022-10-16T03:15:47;14.30;99.90
18779;DHT22;9518;51.720;14.384;2022-10-16T03:18:14;14.30;99.90
18779;DHT22;9518;51.720;14.384;2022-10-16T03:20:42;14.40;99.90
18779;DHT22;9518;51.720;14.384;2022-10-16T03:23:13;14.40;99.90
18779;DHT22;9518;51.720;14.384;2022-10-16T03:25:40;14.40;99.90
18779;DHT22;9518;51.720;14.384;2022-10-16T03:28:07;14.30;99.90
18779;DHT22;9518;51.720;14.384;2022-10-16T03:30:34;14.20;99.90
18779;DHT22;9518;51.720;14.384;2022-10-16T03:33:01;14.20;99.90
18779;DHT22;9518;51.720;14.384;2022-10-16T03:35:28;14.10;99.90
18779;DHT22;9518;51.720;14.384;2022-10-16T03:37:55;14.10;99.90
18779;DHT22;9518;51.720;14.384;2022-10-16T03:40:23;14.10;99.90
18779;DHT22;9518;51.720;14.384;2022-10-16T03:42:50;14.20;99.90
18779;DHT22;9518;51.720;14.384;2022-10-16T03:45:18;14.20;99.90
18779;DHT22;9518;51.720;14.384;2022-10-16T03:47:45;14.20;99.90
18779;DHT22;9518;51.720;14.384;2022-10-16T03:50:13;14.20;99.90
18779;DHT22;9518;51.720;14.384;2022-10-16T03:52:39;14.20;99.90
18779;DHT22;9518;51.720;14.384;2022-10-16T03:55:07;14.30;99.90
18779;DHT22;9518;51.720;14.384;2022-10-16T03:57:35;14.40;99.90
18779;DHT22;9518;51.720;14.384;2022-10-16T04:00:03;14.50;99.90
18779;DHT22;9518;51.720;14.384;2022-10-16T04:02:30;14.50;99.90
18779;DHT22;9518;51.720;14.384;2022-10-16T04:04:57;14.50;99.90
18779;DHT22;9518;51.720;14.384;2022-10-16T04:07:23;14.40;99.90
18779;DHT22;9518;51.720;14.384;2022-10-16T04:09:50;14.40;99.90
18779;DHT22;9518;51.720;14.384;2022-10-16T04:12:17;14.50;99.90
18779;DHT22;9518;51.720;14.384;2022-10-16T04:14:45;14.40;99.90
18779;DHT22;9518;51.720;14.384;2022-10-16T04:17:12;14.40;99.90
18779;DHT22;9518;51.720;14.384;2022-10-16T04:19:39;14.30;99.90
18779;DHT22;9518;51.720;14.384;2022-10-16T04:22:06;14.30;99.90
18779;DHT22;9518;51.720;14.384;2022-10-16T04:24:33;14.40;99.90
18779;DHT22;9518;51.720;14.384;2022-10-16T04:27:00;14.40;99.90
18779;DHT22;9518;51.720;14.384;2022-10-16T04:29:26;14.40;99.90
18779;DHT22;9518;51.720;14.384;2022-10-16T04:31:55;14.30;99.90
18779;DHT22;9518;51.720;14.384;2022-10-16T04:34:22;14.30;99.90
18779;DHT22;9518;51.720;14.384;2022-10-16T04:36:49;14.20;99.90
18779;DHT22;9518;51.720;14.384;2022-10-16T04:39:16;14.20;99.90
18779;DHT22;9518;51.720;14.384;2022-10-16T04:41:43;14.10;99.90
18779;DHT22;9518;51.720;14.384;2022-10-16T04:44:10;14.10;99.90
18779;DHT22;9518;51.720;14.384;2022-10-16T04:46:37;14.00;99.90
18779;DHT22;9518;51.720;14.384;2022-10-16T04:49:05;14.10;99.90
18779;DHT22;9518;51.720;14.384;2022-10-16T04:51:32;14.10;99.90
18779;DHT22;9518;51.720;14.384;2022-10-16T04:53:59;14.10;99.90
18779;DHT22;9518;51.720;14.384;2022-10-16T04:56:26;14.10;99.90
18779;DHT22;9518;51.720;14.384;2022-10-16T04:58:52;14.10;99.90
18779;DHT22;9518;51.720;14.384;2022-10-16T05:01:21;14.10;99.90
18779;DHT22;9518;51.720;14.384;2022-10-16T05:03:48;14.10;99.90
18779;DHT22;9518;51.720;14.384;2022-10-16T05:06:16;14.10;99.90
18779;DHT22;9518;51.720;14.384;2022-10-16T05:08:43;14.20;99.90
18779;DHT22;9518;51.720;14.384;2022-10-16T05:11:10;14.20;99.90
18779;DHT22;9518;51.720;14.384;2022-10-16T05:13:37;14.20;99.90
18779;DHT22;9518;51.720;14.384;2022-10-16T05:16:04;14.20;99.90
18779;DHT22;9518;51.720;14.384;2022-10-16T05:18:31;14.20;99.90
18779;DHT22;9518;51.720;14.384;2022-10-16T05:20:58;14.20;99.90
18779;DHT22;9518;51.720;14.384;2022-10-16T05:23:26;14.10;99.90
18779;DHT22;9518;51.720;14.384;2022-10-16T05:25:53;14.20;99.90
18779;DHT22;9518;51.720;14.384;2022-10-16T05:28:21;14.20;99.90
18779;DHT22;9518;51.720;14.384;2022-10-16T05:30:48;14.30;99.90
18779;DHT22;9518;51.720;14.384;2022-10-16T05:33:14;14.20;99.90
18779;DHT22;9518;51.720;14.384;2022-10-16T05:35:41;14.30;99.90
18779;DHT22;9518;51.720;14.384;2022-10-16T05:38:09;14.30;99.90
18779;DHT22;9518;51.720;14.384;2022-10-16T05:40:37;14.30;99.90
18779;DHT22;9518;51.720;14.384;2022-10-16T05:43:04;14.30;99.90
18779;DHT22;9518;51.720;14.384;2022-10-16T05:45:31;14.30;99.90
18779;DHT22;9518;51.720;14.384;2022-10-16T05:47:58;14.30;99.90
18779;DHT22;9518;51.720;14.384;2022-10-16T05:50:25;14.30;99.90
18779;DHT22;9518;51.720;14.384;2022-10-16T05:52:52;14.40;99.90
18779;DHT22;9518;51.720;14.384;2022-10-16T05:55:19;14.50;99.90
18779;DHT22;9518;51.720;14.384;2022-10-16T05:57:47;14.50;99.90
18779;DHT22;9518;51.720;14.384;2022-10-16T06:00:14;14.50;99.90
18779;DHT22;9518;51.720;14.384;2022-10-16T06:02:41;14.60;99.90
18779;DHT22;9518;51.720;14.384;2022-10-16T06:05:08;14.60;99.90
18779;DHT22;9518;51.720;14.384;2022-10-16T06:07:35;14.60;99.90
18779;DHT22;9518;51.720;14.384;2022-10-16T06:10:05;14.50;99.90
18779;DHT22;9518;51.720;14.384;2022-10-16T06:12:32;14.50;99.90
18779;DHT22;9518;51.720;14.384;2022-10-16T06:15:00;14.50;99.90
18779;DHT22;9518;51.720;14.384;2022-10-16T06:17:27;14.50;99.90
18779;DHT22;9518;51.720;14.384;2022-10-16T06:19:54;14.50;99.90
18779;DHT22;9518;51.720;14.384;2022-10-16T06:22:20;14.40;99.90
18779;DHT22;9518;51.720;14.384;2022-10-16T06:24:47;14.50;99.90
18779;DHT22;9518;51.720;14.384;2022-10-16T06:27:15;14.50;99.90
18779;DHT22;9518;51.720;14.384;2022-10-16T06:29:42;14.40;99.90
18779;DHT22;9518;51.720;14.384;2022-10-16T06:32:11;14.40;99.90
18779;DHT22;9518;51.720;14.384;2022-10-16T06:34:38;14.20;99.90
18779;DHT22;9518;51.720;14.384;2022-10-16T06:37:06;14.30;99.90
18779;DHT22;9518;51.720;14.384;2022-10-16T06:39:33;14.10;99.90
18779;DHT22;9518;51.720;14.384;2022-10-16T06:42:00;14.10;99.90
18779;DHT22;9518;51.720;14.384;2022-10-16T06:44:27;14.10;99.90
18779;DHT22;9518;51.720;14.384;2022-10-16T06:46:53;14.10;99.90
18779;DHT22;9518;51.720;14.384;2022-10-16T06:49:22;14.10;99.90
18779;DHT22;9518;51.720;14.384;2022-10-16T06:51:49;14.20;99.90
18779;DHT22;9518;51.720;14.384;2022-10-16T06:54:16;14.20;99.90
18779;DHT22;9518;51.720;14.384;2022-10-16T06:56:43;14.20;99.90
18779;DHT22;9518;51.720;14.384;2022-10-16T06:59:10;14.20;99.90
18779;DHT22;9518;51.720;14.384;2022-10-16T07:01:37;14.40;99.90
18779;DHT22;9518;51.720;14.384;2022-10-16T07:04:03;14.40;99.90
18779;DHT22;9518;51.720;14.384;2022-10-16T07:06:33;14.50;99.90
18779;DHT22;9518;51.720;14.384;2022-10-16T07:09:05;14.70;99.90
18779;DHT22;9518;51.720;14.384;2022-10-16T07:11:32;14.70;99.90
18779;DHT22;9518;51.720;14.384;2022-10-16T07:13:59;14.80;99.90
18779;DHT22;9518;51.720;14.384;2022-10-16T07:16:27;14.80;99.90
18779;DHT22;9518;51.720;14.384;2022-10-16T07:18:54;14.90;99.90
18779;DHT22;9518;51.720;14.384;2022-10-16T07:21:24;15.10;99.90
18779;DHT22;9518;51.720;14.384;2022-10-16T07:23:54;15.40;99.90
18779;DHT22;9518;51.720;14.384;2022-10-16T07:26:22;15.70;99.90
18779;DHT22;9518;51.720;14.384;2022-10-16T07:28:49;15.90;99.90
18779;DHT22;9518;51.720;14.384;2022-10-16T07:31:17;16.10;99.90
18779;DHT22;9518;51.720;14.384;2022-10-16T07:33:45;16.30;99.90
18779;DHT22;9518;51.720;14.384;2022-10-16T07:36:14;16.30;99.90
18779;DHT22;9518;51.720;14.384;2022-10-16T07:38:45;16.30;99.90
18779;DHT22;9518;51.720;14.384;2022-10-16T07:41:17;16.50;99.90
18779;DHT22;9518;51.720;14.384;2022-10-16T07:43:46;16.70;99.90
18779;DHT22;9518;51.720;14.384;2022-10-16T07:46:14;17.00;99.90
18779;DHT22;9518;51.720;14.384;2022-10-16T07:48:42;17.10;99.90
18779;DHT22;9518;51.720;14.384;2022-10-16T07:51:12;17.20;99.90
18779;DHT22;9518;51.720;14.384;2022-10-16T07:53:39;17.40;99.90
18779;DHT22;9518;51.720;14.384;2022-10-16T07:56:07;17.60;99.90
18779;DHT22;9518;51.720;14.384;2022-10-16T07:58:36;17.80;99.90
18779;DHT22;9518;51.720;14.384;2022-10-16T08:01:04;17.90;99.90
18779;DHT22;9518;51.720;14.384;2022-10-16T08:03:31;18.10;99.90
18779;DHT22;9518;51.720;14.384;2022-10-16T08:05:58;18.20;99.90
18779;DHT22;9518;51.720;14.384;2022-10-16T08:08:26;18.30;99.90
18779;DHT22;9518;51.720;14.384;2022-10-16T08:10:53;18.60;99.90
18779;DHT22;9518;51.720;14.384;2022-10-16T08:13:20;18.90;98.80
18779;DHT22;9518;51.720;14.384;2022-10-16T08:15:48;19.20;83.10
18779;DHT22;9518;51.720;14.384;2022-10-16T08:18:15;19.40;24.80
18779;DHT22;9518;51.720;14.384;2022-10-16T08:20:45;19.60;48.40
18779;DHT22;9518;51.720;14.384;2022-10-16T08:23:12;19.70;36.70
18779;DHT22;9518;51.720;14.384;2022-10-16T08:25:39;19.80;22.50
18779;DHT22;9518;51.720;14.384;2022-10-16T08:28:08;19.80;13.80
18779;DHT22;9518;51.720;14.384;2022-10-16T08:30:36;20.00;38.20
18779;DHT22;9518;51.720;14.384;2022-10-16T08:33:04;20.00;1.00
18779;DHT22;9518;51.720;14.384;2022-10-16T08:35:32;19.80;6.30
18779;DHT22;9518;51.720;14.384;2022-10-16T08:37:59;19.70;1.00
18779;DHT22;9518;51.720;14.384;2022-10-16T08:40:27;19.70;1.00
18779;DHT22;9518;51.720;14.384;2022-10-16T08:43:13;19.60;1.00
18779;DHT22;9518;51.720;14.384;2022-10-16T08:45:52;19.70;12.10
18779;DHT22;9518;51.720;14.384;2022-10-16T08:48:27;19.90;1.00
18779;DHT22;9518;51.720;14.384;2022-10-16T08:50:56;20.10;1.00
18779;DHT22;9518;51.720;14.384;2022-10-16T08:53:28;20.40;1.00
18779;DHT22;9518;51.720;14.384;2022-10-16T08:55:57;20.60;1.00
18779;DHT22;9518;51.720;14.384;2022-10-16T08:58:27;20.60;1.00
18779;DHT22;9518;51.720;14.384;2022-10-16T09:00:55;20.50;1.00
18779;DHT22;9518;51.720;14.384;2022-10-16T09:03:34;20.40;1.00
18779;DHT22;9518;51.720;14.384;2022-10-16T09:06:25;20.40;1.00
18779;DHT22;9518;51.720;14.384;2022-10-16T09:09:12;20.40;1.00
18779;DHT22;9518;51.720;14.384;2022-10-16T09:11:48;20.60;1.00
18779;DHT22;9518;51.720;14.384;2022-10-16T09:14:50;20.90;1.00
18779;DHT22;9518;51.720;14.384;2022-10-16T09:17:27;21.00;1.00
18779;DHT22;9518;51.720;14.384;2022-10-16T09:20:07;21.10;1.00
18779;DHT22;9518;51.720;14.384;2022-10-16T09:22:36;21.30;1.00
18779;DHT22;9518;51.720;14.384;2022-10-16T09:25:11;21.30;99.90
18779;DHT22;9518;51.720;14.384;2022-10-16T09:27:38;21.40;1.00
18779;DHT22;9518;51.720;14.384;2022-10-16T09:30:12;21.70;1.00
18779;DHT22;9518;51.720;14.384;2022-10-16T09:32:39;22.00;99.90
18779;DHT22;9518;51.720;14.384;2022-10-16T09:35:14;22.30;99.90
18779;DHT22;9518;51.720;14.384;2022-10-16T09:37:44;22.40;99.90
18779;DHT22;9518;51.720;14.384;2022-10-16T09:40:13;22.20;99.90
18779;DHT22;9518;51.720;14.384;2022-10-16T09:42:40;21.90;99.90
18779;DHT22;9518;51.720;14.384;2022-10-16T09:45:20;21.70;99.90
18779;DHT22;9518;51.720;14.384;2022-10-16T09:47:50;21.70;99.90
18779;DHT22;9518;51.720;14.384;2022-10-16T09:50:23;21.70;99.90
18779;DHT22;9518;51.720;14.384;2022-10-16T09:53:03;21.50;99.90
18779;DHT22;9518;51.720;14.384;2022-10-16T09:55:30;21.40;99.90
18779;DHT22;9518;51.720;14.384;2022-10-16T09:57:57;21.40;99.90
18779;DHT22;9518;51.720;14.384;2022-10-16T10:00:33;21.20;99.90
18779;DHT22;9518;51.720;14.384;2022-10-16T10:03:00;21.20;99.90
18779;DHT22;9518;51.720;14.384;2022-10-16T10:05:39;21.20;99.90
18779;DHT22;9518;51.720;14.384;2022-10-16T10:08:12;21.30;99.90
18779;DHT22;9518;51.720;14.384;2022-10-16T10:11:04;21.50;99.90
18779;DHT22;9518;51.720;14.384;2022-10-16T10:16:23;22.00;99.90
18779;DHT22;9518;51.720;14.384;2022-10-16T10:18:58;22.10;99.90
18779;DHT22;9518;51.720;14.384;2022-10-16T10:21:26;22.30;99.90
18779;DHT22;9518;51.720;14.384;2022-10-16T10:23:55;22.30;99.90
18779;DHT22;9518;51.720;14.384;2022-10-16T10:26:25;21.70;99.90
18779;DHT22;9518;51.720;14.384;2022-10-16T10:29:00;21.10;99.90
18779;DHT22;9518;51.720;14.384;2022-10-16T10:31:36;20.80;99.90
18779;DHT22;9518;51.720;14.384;2022-10-16T10:34:18;20.70;99.90
18779;DHT22;9518;51.720;14.384;2022-10-16T10:36:54;21.00;99.90
18779;DHT22;9518;51.720;14.384;2022-10-16T10:39:27;21.50;99.90
18779;DHT22;9518;51.720;14.384;2022-10-16T10:42:12;21.80;99.90
18779;DHT22;9518;51.720;14.384;2022-10-16T10:44:55;22.10;99.90
18779;DHT22;9518;51.720;14.384;2022-10-16T10:47:31;21.90;99.90
18779;DHT22;9518;51.720;14.384;2022-10-16T10:50:07;21.70;99.90
18779;DHT22;9518;51.720;14.384;2022-10-16T10:52:53;22.20;99.90
18779;DHT22;9518;51.720;14.384;2022-10-16T10:55:30;22.50;99.90
18779;DHT22;9518;51.720;14.384;2022-10-16T10:58:22;22.60;99.90
18779;DHT22;9518;51.720;14.384;2022-10-16T11:00:57;22.50;99.90
18779;DHT22;9518;51.720;14.384;2022-10-16T11:03:40;22.20;99.90
18779;DHT22;9518;51.720;14.384;2022-10-16T11:06:10;22.10;99.90
18779;DHT22;9518;51.720;14.384;2022-10-16T11:08:43;21.80;99.90
18779;DHT22;9518;51.720;14.384;2022-10-16T11:11:16;21.70;99.90
18779;DHT22;9518;51.720;14.384;2022-10-16T11:13:48;21.70;99.90
18779;DHT22;9518;51.720;14.384;2022-10-16T11:16:27;21.70;99.90
18779;DHT22;9518;51.720;14.384;2022-10-16T11:18:58;21.70;99.90
18779;DHT22;9518;51.720;14.384;2022-10-16T11:21:29;21.70;99.90
18779;DHT22;9518;51.720;14.384;2022-10-16T11:24:02;21.60;99.90
18779;DHT22;9518;51.720;14.384;2022-10-16T11:26:34;21.50;99.90
18779;DHT22;9518;51.720;14.384;2022-10-16T11:29:04;21.20;99.90
18779;DHT22;9518;51.720;14.384;2022-10-16T11:31:37;21.10;99.90
18779;DHT22;9518;51.720;14.384;2022-10-16T11:34:11;21.20;99.90
18779;DHT22;9518;51.720;14.384;2022-10-16T11:36:46;21.10;99.90
18779;DHT22;9518;51.720;14.384;2022-10-16T11:39:21;21.20;99.90
18779;DHT22;9518;51.720;14.384;2022-10-16T11:41:50;21.40;99.90
18779;DHT22;9518;51.720;14.384;2022-10-16T11:44:32;21.70;99.90
18779;DHT22;9518;51.720;14.384;2022-10-16T11:47:08;22.00;99.90
18779;DHT22;9518;51.720;14.384;2022-10-16T11:49:40;22.30;99.90
18779;DHT22;9518;51.720;14.384;2022-10-16T11:52:12;22.50;99.90
18779;DHT22;9518;51.720;14.384;2022-10-16T11:54:47;22.90;99.90
18779;DHT22;9518;51.720;14.384;2022-10-16T11:57:22;23.20;99.90
18779;DHT22;9518;51.720;14.384;2022-10-16T11:59:54;23.10;99.90
18779;DHT22;9518;51.720;14.384;2022-10-16T12:02:35;22.80;99.90
18779;DHT22;9518;51.720;14.384;2022-10-16T12:05:24;22.50;99.90
18779;DHT22;9518;51.720;14.384;2022-10-16T12:07:59;22.30;99.90
18779;DHT22;9518;51.720;14.384;2022-10-16T12:10:30;22.30;99.90
18779;DHT22;9518;51.720;14.384;2022-10-16T12:13:03;22.30;99.90
18779;DHT22;9518;51.720;14.384;2022-10-16T12:15:32;22.30;99.90
18779;DHT22;9518;51.720;14.384;2022-10-16T12:18:00;22.20;99.90
18779;DHT22;9518;51.720;14.384;2022-10-16T12:20:29;22.40;99.90
18779;DHT22;9518;51.720;14.384;2022-10-16T12:23:00;22.30;99.90
18779;DHT22;9518;51.720;14.384;2022-10-16T12:25:31;22.30;99.90
18779;DHT22;9518;51.720;14.384;2022-10-16T12:28:01;22.20;99.90
18779;DHT22;9518;51.720;14.384;2022-10-16T12:30:31;22.10;99.90
18779;DHT22;9518;51.720;14.384;2022-10-16T12:33:00;22.10;99.90
18779;DHT22;9518;51.720;14.384;2022-10-16T12:35:30;21.90;99.90
18779;DHT22;9518;51.720;14.384;2022-10-16T12:38:17;21.90;99.90
18779;DHT22;9518;51.720;14.384;2022-10-16T12:40:54;21.90;99.90
18779;DHT22;9518;51.720;14.384;2022-10-16T12:43:27;22.30;99.90
18779;DHT22;9518;51.720;14.384;2022-10-16T12:48:45;24.10;96.60
18779;DHT22;9518;51.720;14.384;2022-10-16T12:51:23;24.30;27.10
18779;DHT22;9518;51.720;14.384;2022-10-16T12:53:58;24.20;18.70
18779;DHT22;9518;51.720;14.384;2022-10-16T12:56:35;23.90;9.60
18779;DHT22;9518;51.720;14.384;2022-10-16T12:59:12;23.90;7.70
18779;DHT22;9518;51.720;14.384;2022-10-16T13:01:56;23.40;14.90
18779;DHT22;9518;51.720;14.384;2022-10-16T13:04:42;22.80;48.80
18779;DHT22;9518;51.720;14.384;2022-10-16T13:07:26;22.50;99.90
18779;DHT22;9518;51.720;14.384;2022-10-16T13:10:03;22.20;99.90
18779;DHT22;9518;51.720;14.384;2022-10-16T13:12:46;22.10;99.90
18779;DHT22;9518;51.720;14.384;2022-10-16T13:15:28;22.10;99.90
18779;DHT22;9518;51.720;14.384;2022-10-16T13:18:04;22.20;99.90
18779;DHT22;9518;51.720;14.384;2022-10-16T13:20:46;22.20;99.90
18779;DHT22;9518;51.720;14.384;2022-10-16T13:23:23;22.10;99.90
18779;DHT22;9518;51.720;14.384;2022-10-16T13:26:01;22.10;99.90
18779;DHT22;9518;51.720;14.384;2022-10-16T13:28:35;22.30;99.90
18779;DHT22;9518;51.720;14.384;2022-10-16T13:31:03;22.20;99.90
18779;DHT22;9518;51.720;14.384;2022-10-16T13:33:33;22.30;99.90
18779;DHT22;9518;51.720;14.384;2022-10-16T13:36:02;22.30;99.90
18779;DHT22;9518;51.720;14.384;2022-10-16T13:38:31;22.30;99.90
18779;DHT22;9518;51.720;14.384;2022-10-16T13:41:00;22.20;99.90
18779;DHT22;9518;51.720;14.384;2022-10-16T13:43:29;22.40;99.90
18779;DHT22;9518;51.720;14.384;2022-10-16T13:46:02;22.50;99.90
18779;DHT22;9518;51.720;14.384;2022-10-16T13:48:30;22.70;99.90
18779;DHT22;9518;51.720;14.384;2022-10-16T13:51:05;22.60;99.90
18779;DHT22;9518;51.720;14.384;2022-10-16T13:53:34;22.40;99.90
18779;DHT22;9518;51.720;14.384;2022-10-16T13:56:04;22.40;99.90
18779;DHT22;9518;51.720;14.384;2022-10-16T13:58:31;22.40;99.90
18779;DHT22;9518;51.720;14.384;2022-10-16T14:01:01;22.40;99.90
18779;DHT22;9518;51.720;14.384;2022-10-16T14:03:29;22.40;99.90
18779;DHT22;9518;51.720;14.384;2022-10-16T14:05:59;22.40;99.90
18779;DHT22;9518;51.720;14.384;2022-10-16T14:08:29;22.30;99.90
18779;DHT22;9518;51.720;14.384;2022-10-16T14:10:57;22.10;99.90
18779;DHT22;9518;51.720;14.384;2022-10-16T14:13:29;22.00;99.90
18779;DHT22;9518;51.720;14.384;2022-10-16T14:15:58;22.00;99.90
18779;DHT22;9518;51.720;14.384;2022-10-16T14:18:28;21.90;99.90
18779;DHT22;9518;51.720;14.384;2022-10-16T14:21:03;21.90;99.90
18779;DHT22;9518;51.720;14.384;2022-10-16T14:23:32;22.20;99.90
18779;DHT22;9518;51.720;14.384;2022-10-16T14:26:22;22.60;99.90
18779;DHT22;9518;51.720;14.384;2022-10-16T14:29:02;23.30;99.90
18779;DHT22;9518;51.720;14.384;2022-10-16T14:31:32;23.70;52.60
18779;DHT22;9518;51.720;14.384;2022-10-16T14:34:02;24.10;14.20
18779;DHT22;9518;51.720;14.384;2022-10-16T14:36:30;24.40;1.00
18779;DHT22;9518;51.720;14.384;2022-10-16T14:39:04;24.00;1.00
18779;DHT22;9518;51.720;14.384;2022-10-16T14:41:32;23.50;1.00
18779;DHT22;9518;51.720;14.384;2022-10-16T14:44:11;23.00;20.90
18779;DHT22;9518;51.720;14.384;2022-10-16T14:46:40;22.50;57.50
18779;DHT22;9518;51.720;14.384;2022-10-16T14:49:17;22.10;99.90
18779;DHT22;9518;51.720;14.384;2022-10-16T14:51:45;21.70;99.90
18779;DHT22;9518;51.720;14.384;2022-10-16T14:54:13;21.50;99.90
18779;DHT22;9518;51.720;14.384;2022-10-16T14:56:46;21.50;99.90
18779;DHT22;9518;51.720;14.384;2022-10-16T14:59:17;21.30;99.90
18779;DHT22;9518;51.720;14.384;2022-10-16T15:01:44;21.10;1.00
18779;DHT22;9518;51.720;14.384;2022-10-16T15:04:14;21.00;1.00
18779;DHT22;9518;51.720;14.384;2022-10-16T15:06:41;20.70;1.00
18779;DHT22;9518;51.720;14.384;2022-10-16T15:09:08;20.60;1.00
18779;DHT22;9518;51.720;14.384;2022-10-16T15:11:35;20.50;1.00
18779;DHT22;9518;51.720;14.384;2022-10-16T15:14:02;20.40;1.00
18779;DHT22;9518;51.720;14.384;2022-10-16T15:16:30;20.40;1.00
18779;DHT22;9518;51.720;14.384;2022-10-16T15:18:58;20.30;1.00
18779;DHT22;9518;51.720;14.384;2022-10-16T15:21:28;20.10;1.00
18779;DHT22;9518;51.720;14.384;2022-10-16T15:23:55;20.10;1.00
18779;DHT22;9518;51.720;14.384;2022-10-16T15:26:23;20.00;99.90
18779;DHT22;9518;51.720;14.384;2022-10-16T15:28:50;19.80;99.90
18779;DHT22;9518;51.720;14.384;2022-10-16T15:31:17;19.60;1.00
18779;DHT22;9518;51.720;14.384;2022-10-16T15:33:44;19.50;1.00
18779;DHT22;9518;51.720;14.384;2022-10-16T15:36:24;19.30;1.00
18779;DHT22;9518;51.720;14.384;2022-10-16T15:38:52;19.10;99.90
18779;DHT22;9518;51.720;14.384;2022-10-16T15:41:20;18.90;1.00
18779;DHT22;9518;51.720;14.384;2022-10-16T15:43:49;18.80;99.90
18779;DHT22;9518;51.720;14.384;2022-10-16T15:46:18;18.70;1.00
18779;DHT22;9518;51.720;14.384;2022-10-16T15:48:46;18.60;1.00
18779;DHT22;9518;51.720;14.384;2022-10-16T15:51:13;18.50;1.00
18779;DHT22;9518;51.720;14.384;2022-10-16T15:53:40;18.40;1.00
18779;DHT22;9518;51.720;14.384;2022-10-16T15:56:10;18.20;1.00
18779;DHT22;9518;51.720;14.384;2022-10-16T15:58:37;18.10;99.90